Time;durP1;ratioP1;P1;durP2;ratioP2;P2;SDS_P1;SDS_P2;PMS_P1;PMS_P2;Temp;Humidity;BMP_temperature;BMP_pressure;BME280_temperature;BME280_humidity;BME280_pressure;Samples;Min_cycle;Max_cycle;Signal;HPM_P1;HPM_P2
2021/10/14 00:00:21;;;;;;;1.60;1.13;;;;;18.60;101439.00;;;;2088331;28;20209;-57
2021/10/14 00:01:22;;;;;;;1.00;0.90;;;;;18.60;101430.00;;;;2085111;28;20306;-53
2021/10/14 00:02:22;;;;;;;2.17;1.07;;;;;18.60;101431.00;;;;2079684;28;20248;-53
2021/10/14 00:03:23;;;;;;;1.30;1.00;;;;;18.60;101438.00;;;;2079386;28;20271;-53
2021/10/14 00:04:23;;;;;;;1.20;1.10;;;;;18.60;101435.00;;;;2080115;28;20217;-56
2021/10/14 00:05:23;;;;;;;1.10;1.00;;;;;18.60;101436.00;;;;2080007;28;20217;-54
2021/10/14 00:06:24;;;;;;;1.57;1.10;;;;;18.60;101433.00;;;;2080073;28;20229;-56
2021/10/14 00:07:24;;;;;;;1.73;1.20;;;;;18.60;101442.00;;;;2079987;28;20252;-53
2021/10/14 00:08:24;;;;;;;1.60;1.20;;;;;18.60;101437.00;;;;2080029;28;20224;-55
2021/10/14 00:09:25;;;;;;;1.13;1.03;;;;;18.60;101432.00;;;;2079699;28;20240;-56
2021/10/14 00:10:26;;;;;;;1.80;0.90;;;;;18.60;101431.00;;;;2080029;28;20298;-55
2021/10/14 00:11:27;;;;;;;1.23;1.05;;;;;18.60;101437.00;;;;2083506;28;20209;-53
2021/10/14 00:12:28;;;;;;;1.20;1.10;;;;;18.60;101439.00;;;;2088116;28;20689;-56
2021/10/14 00:13:28;;;;;;;1.43;0.93;;;;;18.60;101432.00;;;;2087905;28;20209;-53
2021/10/14 00:14:28;;;;;;;1.40;1.03;;;;;18.60;101439.00;;;;2088282;28;20209;-53
2021/10/14 00:15:29;;;;;;;1.60;1.03;;;;;18.60;101439.00;;;;2087972;28;20296;-56
2021/10/14 00:16:29;;;;;;;1.57;1.13;;;;;18.60;101441.00;;;;2082570;28;20210;-56
2021/10/14 00:17:29;;;;;;;1.17;0.97;;;;;18.60;101438.00;;;;2082184;28;20695;-55
2021/10/14 00:18:30;;;;;;;1.47;1.20;;;;;18.60;101443.00;;;;2081236;28;20646;-56
2021/10/14 00:19:31;;;;;;;1.20;1.00;;;;;18.60;101443.00;;;;2078847;28;20240;-56
2021/10/14 00:20:31;;;;;;;1.27;1.00;;;;;18.60;101432.00;;;;2079195;28;20205;-56
2021/10/14 00:21:32;;;;;;;1.40;1.20;;;;;18.60;101436.00;;;;2079690;28;20217;-56
2021/10/14 00:22:32;;;;;;;1.83;1.43;;;;;18.60;101436.00;;;;2079158;28;20236;-59
2021/10/14 00:23:32;;;;;;;1.13;1.03;;;;;18.60;101443.00;;;;2080004;28;20217;-59
2021/10/14 00:24:33;;;;;;;1.30;0.97;;;;;18.60;101446.00;;;;2079947;28;20210;-55
2021/10/14 00:25:33;;;;;;;1.13;1.00;;;;;18.60;101441.00;;;;2079915;28;20214;-56
2021/10/14 00:26:33;;;;;;;1.60;1.27;;;;;18.60;101450.00;;;;2079053;28;20213;-56
2021/10/14 00:27:34;;;;;;;1.30;1.13;;;;;18.60;101442.00;;;;2079719;28;20217;-55
2021/10/14 00:28:34;;;;;;;1.60;1.00;;;;;18.60;101446.00;;;;2079136;28;20276;-55
2021/10/14 00:29:35;;;;;;;1.77;1.13;;;;;18.60;101444.00;;;;2078788;28;20213;-56
2021/10/14 00:30:35;;;;;;;1.20;1.10;;;;;18.60;101449.00;;;;2079878;28;20213;-56
2021/10/14 00:31:35;;;;;;;1.10;1.00;;;;;18.60;101447.00;;;;2079855;28;20209;-57
2021/10/14 00:32:36;;;;;;;1.70;1.13;;;;;18.60;101442.00;;;;2079781;28;20292;-56
2021/10/14 00:33:36;;;;;;;1.47;0.90;;;;;18.60;101448.00;;;;2079782;28;20244;-56
2021/10/14 00:34:36;;;;;;;1.10;1.00;;;;;18.60;101446.00;;;;2079985;28;20212;-56
2021/10/14 00:35:37;;;;;;;1.10;1.00;;;;;18.60;101435.00;;;;2079680;28;20260;-56
2021/10/14 00:36:37;;;;;;;1.33;1.10;;;;;18.60;101447.00;;;;2079660;28;20283;-54
2021/10/14 00:37:37;;;;;;;1.43;1.00;;;;;18.60;101449.00;;;;2079901;28;20205;-56
2021/10/14 00:38:38;;;;;;;0.97;0.87;;;;;18.60;101442.00;;;;2079625;28;20217;-56
2021/10/14 00:39:38;;;;;;;1.70;1.07;;;;;18.60;101432.00;;;;2079537;28;20214;-56
2021/10/14 00:40:38;;;;;;;1.40;1.07;;;;;18.60;101431.00;;;;2079053;28;20225;-56
2021/10/14 00:41:39;;;;;;;1.00;0.90;;;;;18.60;101434.00;;;;2076357;28;20259;-56
2021/10/14 00:42:45;;;;;;;2.60;1.03;;;;;18.60;101424.00;;;;2087358;28;20220;-56
2021/10/14 00:43:45;;;;;;;1.73;1.00;;;;;18.60;101432.00;;;;2086898;28;20255;-55
2021/10/14 00:44:46;;;;;;;1.30;0.90;;;;;18.60;101432.00;;;;2080425;28;20625;-56
2021/10/14 00:45:47;;;;;;;1.33;1.10;;;;;18.60;101430.00;;;;2087432;28;20700;-56
2021/10/14 00:46:54;;;;;;;1.47;1.10;;;;;18.60;101435.00;;;;2081718;28;20791;-56
2021/10/14 00:47:54;;;;;;;1.63;1.20;;;;;18.60;101432.00;;;;2081443;28;20205;-54
2021/10/14 00:48:55;;;;;;;1.40;1.30;;;;;18.60;101429.00;;;;2079435;28;20574;-56
2021/10/14 00:49:56;;;;;;;1.30;1.10;;;;;18.60;101425.00;;;;2079544;28;20580;-55
2021/10/14 00:50:57;;;;;;;1.15;1.05;;;;;18.60;101428.00;;;;2079742;28;20706;-56
2021/10/14 00:51:57;;;;;;;1.13;1.03;;;;;18.60;101421.00;;;;2079700;28;20225;-56
2021/10/14 00:52:57;;;;;;;1.40;1.23;;;;;18.60;101414.00;;;;2079939;28;20690;-56
2021/10/14 00:53:58;;;;;;;1.40;1.30;;;;;18.60;101413.00;;;;2079136;28;20582;-53
2021/10/14 00:54:59;;;;;;;1.60;1.10;;;;;18.60;101415.00;;;;2078957;28;20214;-55
2021/10/14 00:55:59;;;;;;;1.40;1.10;;;;;18.60;101410.00;;;;2078805;28;20610;-56
2021/10/14 00:57:00;;;;;;;1.43;1.10;;;;;18.60;101405.00;;;;2079637;28;20224;-53
2021/10/14 00:58:00;;;;;;;1.10;0.90;;;;;18.60;101403.00;;;;2079076;28;20205;-55
2021/10/14 00:59:01;;;;;;;1.30;1.20;;;;;18.60;101394.00;;;;2086083;28;20205;-56
2021/10/14 01:00:04;;;;;;;1.23;0.93;;;;;18.60;101410.00;;;;2078597;28;20279;-56
2021/10/14 01:01:04;;;;;;;2.97;1.10;;;;;18.60;101398.00;;;;2086552;28;20236;-55
2021/10/14 01:02:05;;;;;;;1.33;1.00;;;;;18.60;101399.00;;;;2087899;28;20209;-56
2021/10/14 01:03:05;;;;;;;1.50;1.03;;;;;18.60;101402.00;;;;2087932;28;20220;-56
2021/10/14 01:04:06;;;;;;;1.77;1.00;;;;;18.60;101400.00;;;;2081850;28;20457;-55
2021/10/14 01:05:06;;;;;;;0.87;0.77;;;;;18.60;101397.00;;;;2079461;28;20217;-55
2021/10/14 01:06:07;;;;;;;1.27;1.00;;;;;18.60;101404.00;;;;2078676;28;20218;-56
2021/10/14 01:07:07;;;;;;;1.10;1.00;;;;;18.60;101400.00;;;;2079118;28;20584;-56
2021/10/14 01:08:07;;;;;;;1.13;1.00;;;;;18.60;101399.00;;;;2077991;28;20232;-57
2021/10/14 01:09:08;;;;;;;1.37;1.10;;;;;18.60;101356.00;;;;2078057;28;20259;-56
2021/10/14 01:10:09;;;;;;;1.30;1.20;;;;;18.60;101401.00;;;;2078318;28;20224;-54
2021/10/14 01:11:11;;;;;;;1.73;0.87;;;;;18.60;101399.00;;;;2078792;28;20354;-56
2021/10/14 01:12:11;;;;;;;1.40;0.90;;;;;18.60;101396.00;;;;2089366;28;20931;-56
2021/10/14 01:13:11;;;;;;;0.97;0.80;;;;;18.60;101397.00;;;;2094857;28;20288;-55
2021/10/14 01:14:12;;;;;;;1.67;1.10;;;;;18.60;101398.00;;;;2095152;28;20220;-56
2021/10/14 01:15:24;;;;;;;1.13;1.03;;;;;18.60;101394.00;;;;2095530;28;20201;-54
2021/10/14 01:16:24;;;;;;;1.80;1.30;;;;;18.60;101398.00;;;;2091297;28;20880;-55
2021/10/14 01:17:24;;;;;;;1.77;0.93;;;;;18.60;101392.00;;;;2089237;28;20225;-54
2021/10/14 01:18:25;;;;;;;1.40;1.30;;;;;18.60;101402.00;;;;2089488;28;20241;-56
2021/10/14 01:19:26;;;;;;;2.47;1.50;;;;;18.60;101393.00;;;;2087447;28;20205;-56
2021/10/14 01:20:26;;;;;;;2.10;1.10;;;;;18.60;101393.00;;;;2087606;28;20549;-56
2021/10/14 01:21:27;;;;;;;1.40;0.90;;;;;18.60;101392.00;;;;2087415;28;20270;-56
2021/10/14 01:22:27;;;;;;;2.20;1.07;;;;;18.60;101394.00;;;;2091447;28;20223;-55
2021/10/14 01:23:27;;;;;;;1.53;0.97;;;;;18.60;101386.00;;;;2093879;28;20212;-56
2021/10/14 01:24:28;;;;;;;1.20;1.00;;;;;18.60;101385.00;;;;2096055;28;20212;-56
2021/10/14 01:25:29;;;;;;;1.10;1.00;;;;;18.60;101393.00;;;;2095811;28;20689;-55
2021/10/14 01:26:29;;;;;;;1.20;1.10;;;;;18.60;101378.00;;;;2095019;28;20231;-55
2021/10/14 01:27:30;;;;;;;1.30;0.90;;;;;18.60;101393.00;;;;2095294;28;20629;-56
2021/10/14 01:28:30;;;;;;;2.67;1.33;;;;;18.60;101390.00;;;;2095987;28;20265;-57
2021/10/14 01:29:31;;;;;;;1.23;1.13;;;;;18.60;101389.00;;;;2095679;28;20212;-57
2021/10/14 01:30:31;;;;;;;1.87;1.03;;;;;18.60;101389.00;;;;2095797;28;20204;-56
2021/10/14 01:31:31;;;;;;;1.70;0.90;;;;;18.60;101390.00;;;;2095906;28;20223;-56
2021/10/14 01:32:32;;;;;;;1.63;0.90;;;;;18.60;101386.00;;;;2095845;28;21145;-56
2021/10/14 01:33:32;;;;;;;1.53;1.23;;;;;18.60;101388.00;;;;2095899;28;20304;-56
2021/10/14 01:34:33;;;;;;;1.47;1.10;;;;;18.60;101387.00;;;;2095955;28;20703;-53
2021/10/14 01:35:33;;;;;;;1.43;1.10;;;;;18.60;101387.00;;;;2095729;28;20610;-55
2021/10/14 01:36:34;;;;;;;1.63;1.10;;;;;18.60;101388.00;;;;2095224;28;20219;-56
2021/10/14 01:37:34;;;;;;;2.00;1.33;;;;;18.60;101385.00;;;;2094494;28;20780;-56
2021/10/14 01:38:35;;;;;;;1.03;0.90;;;;;18.60;101380.00;;;;2095090;28;20311;-55
2021/10/14 01:39:35;;;;;;;1.30;0.90;;;;;18.60;101383.00;;;;2094843;28;20216;-54
2021/10/14 01:40:35;;;;;;;0.83;0.83;;;;;18.60;101387.00;;;;2095446;28;20219;-56
2021/10/14 01:41:36;;;;;;;1.43;1.07;;;;;18.60;101383.00;;;;2094494;28;20238;-56
2021/10/14 01:42:36;;;;;;;2.03;1.00;;;;;18.60;101378.00;;;;2095771;28;20754;-56
2021/10/14 01:43:36;;;;;;;1.40;1.30;;;;;18.60;101385.00;;;;2095851;28;20216;-56
2021/10/14 01:44:37;;;;;;;2.73;1.50;;;;;18.60;101390.00;;;;2093213;28;20217;-56
2021/10/14 01:45:37;;;;;;;1.40;1.20;;;;;18.60;101385.00;;;;2088856;28;20231;-56
2021/10/14 01:46:37;;;;;;;1.30;1.17;;;;;18.60;101381.00;;;;2089643;28;20205;-55
2021/10/14 01:47:38;;;;;;;1.50;1.00;;;;;18.60;101385.00;;;;2089246;28;20213;-56
2021/10/14 01:48:38;;;;;;;1.60;1.33;;;;;18.60;101386.00;;;;2087506;28;20612;-56
2021/10/14 01:49:38;;;;;;;1.53;1.00;;;;;18.60;101389.00;;;;2086914;28;20216;-56
2021/10/14 01:50:40;;;;;;;1.27;1.00;;;;;18.60;101392.00;;;;2087177;28;20304;-56
2021/10/14 01:51:41;;;;;;;1.85;1.30;;;;;18.60;101384.00;;;;2087243;28;20342;-56
2021/10/14 01:52:41;;;;;;;1.73;1.10;;;;;18.60;101386.00;;;;2087387;28;20209;-56
2021/10/14 01:53:41;;;;;;;1.43;1.10;;;;;18.60;101390.00;;;;2087467;28;20942;-56
2021/10/14 01:54:42;;;;;;;1.30;1.10;;;;;18.60;101389.00;;;;2087650;28;20304;-55
2021/10/14 01:55:42;;;;;;;1.00;0.90;;;;;18.60;101386.00;;;;2095347;28;20212;-54
2021/10/14 01:56:42;;;;;;;1.87;1.00;;;;;18.60;101386.00;;;;2095506;28;20238;-56
2021/10/14 01:57:43;;;;;;;1.83;1.10;;;;;18.60;101385.00;;;;2095816;28;20216;-56
2021/10/14 01:58:43;;;;;;;1.10;0.93;;;;;18.60;101390.00;;;;2095454;28;20725;-56
2021/10/14 01:59:43;;;;;;;1.00;1.00;;;;;18.60;101388.00;;;;2095615;28;20608;-56
2021/10/14 02:00:51;;;;;;;1.07;0.73;;;;;18.60;101388.00;;;;2095708;28;20679;-53
2021/10/14 02:01:51;;;;;;;1.20;0.90;;;;;18.60;101389.00;;;;2095518;28;20212;-56
2021/10/14 02:02:51;;;;;;;1.10;0.83;;;;;18.60;101387.00;;;;2095717;28;20303;-56
2021/10/14 02:03:52;;;;;;;1.40;1.13;;;;;18.60;101387.00;;;;2095759;28;20238;-56
2021/10/14 02:04:52;;;;;;;1.20;1.10;;;;;18.60;101385.00;;;;2090967;28;20220;-55
2021/10/14 02:05:52;;;;;;;1.47;1.30;;;;;18.60;101384.00;;;;2087525;28;20243;-55
2021/10/14 02:06:53;;;;;;;2.13;1.27;;;;;18.60;101376.00;;;;2087483;28;20205;-56
2021/10/14 02:07:53;;;;;;;2.43;1.20;;;;;18.60;101388.00;;;;2087432;28;20208;-57
2021/10/14 02:08:53;;;;;;;1.00;0.90;;;;;18.60;101389.00;;;;2086836;28;20217;-53
2021/10/14 02:09:54;;;;;;;1.70;1.17;;;;;18.60;101379.00;;;;2087281;28;20304;-56
2021/10/14 02:10:54;;;;;;;1.20;1.10;;;;;18.60;101380.00;;;;2087432;28;20694;-54
2021/10/14 02:11:54;;;;;;;1.10;1.00;;;;;18.60;101383.00;;;;2087184;28;20239;-55
2021/10/14 02:12:55;;;;;;;2.20;1.53;;;;;18.60;101384.00;;;;2087515;28;20216;-56
2021/10/14 02:13:56;;;;;;;1.43;0.97;;;;;18.60;101394.00;;;;2087514;28;20217;-56
2021/10/14 02:14:57;;;;;;;1.27;1.10;;;;;18.60;101392.00;;;;2087105;28;20216;-56
2021/10/14 02:15:57;;;;;;;1.27;1.17;;;;;18.60;101388.00;;;;2088990;28;20204;-56
2021/10/14 02:16:57;;;;;;;1.63;1.00;;;;;18.60;101386.00;;;;2088468;28;20287;-55
2021/10/14 02:17:58;;;;;;;1.27;0.90;;;;;18.60;101391.00;;;;2088090;28;20208;-56
2021/10/14 02:18:58;;;;;;;2.23;1.43;;;;;18.60;101380.00;;;;2086664;28;20209;-56
2021/10/14 02:19:58;;;;;;;1.27;1.17;;;;;18.60;101380.00;;;;2086794;28;20662;-53
2021/10/14 02:20:59;;;;;;;1.40;1.00;;;;;18.60;101378.00;;;;2086709;28;20292;-54
2021/10/14 02:21:59;;;;;;;2.00;1.23;;;;;18.60;101387.00;;;;2086578;28;20251;-56
2021/10/14 02:22:59;;;;;;;1.37;1.17;;;;;18.60;101385.00;;;;2086988;28;20312;-56
2021/10/14 02:24:00;;;;;;;1.30;1.20;;;;;18.60;101388.00;;;;2087085;28;20217;-56
2021/10/14 02:25:00;;;;;;;1.27;1.17;;;;;18.60;101383.00;;;;2086902;28;20220;-57
2021/10/14 02:26:00;;;;;;;1.30;1.20;;;;;18.60;101390.00;;;;2086746;28;20216;-56
2021/10/14 02:27:01;;;;;;;1.60;1.27;;;;;18.60;101391.00;;;;2086188;28;20208;-54
2021/10/14 02:28:01;;;;;;;1.23;0.90;;;;;18.60;101384.00;;;;2086742;28;20240;-56
2021/10/14 02:29:02;;;;;;;1.17;0.97;;;;;18.60;101395.00;;;;2086336;28;20296;-56
2021/10/14 02:30:04;;;;;;;1.40;1.03;;;;;18.60;101383.00;;;;2087019;28;20217;-56
2021/10/14 02:31:04;;;;;;;1.48;1.38;;;;;18.60;101391.00;;;;2086815;28;20213;-56
2021/10/14 02:32:05;;;;;;;1.70;1.20;;;;;18.40;101396.00;;;;2087329;28;20295;-55
2021/10/14 02:33:05;;;;;;;1.40;1.17;;;;;18.60;101386.00;;;;2093345;28;20208;-54
2021/10/14 02:34:06;;;;;;;0.97;0.90;;;;;18.60;101389.00;;;;2095731;28;20204;-56
2021/10/14 02:35:07;;;;;;;1.47;1.37;;;;;18.60;101388.00;;;;2095741;28;20212;-56
2021/10/14 02:36:07;;;;;;;1.67;1.10;;;;;18.60;101383.00;;;;2095633;28;20994;-55
2021/10/14 02:37:07;;;;;;;1.13;1.03;;;;;18.60;101379.00;;;;2095355;28;20693;-55
2021/10/14 02:38:08;;;;;;;1.27;1.17;;;;;18.60;101378.00;;;;2095589;28;20216;-56
2021/10/14 02:39:08;;;;;;;1.50;1.40;;;;;18.60;101377.00;;;;2090331;28;20217;-56
2021/10/14 02:40:09;;;;;;;1.47;1.33;;;;;18.60;101383.00;;;;2087317;28;20227;-56
2021/10/14 02:41:09;;;;;;;1.60;1.40;;;;;18.60;101364.00;;;;2087147;28;20213;-55
2021/10/14 02:42:10;;;;;;;1.30;1.07;;;;;18.60;101374.00;;;;2087187;28;20901;-56
2021/10/14 02:43:10;;;;;;;1.23;1.13;;;;;18.60;101378.00;;;;2087404;28;20216;-56
2021/10/14 02:44:10;;;;;;;1.80;1.20;;;;;18.60;101373.00;;;;2087327;28;20213;-56
2021/10/14 02:45:11;;;;;;;1.40;1.10;;;;;18.60;101369.00;;;;2087315;28;20214;-56
2021/10/14 02:46:11;;;;;;;1.10;1.00;;;;;18.60;101373.00;;;;2089114;28;20212;-56
2021/10/14 02:47:11;;;;;;;1.20;1.10;;;;;18.60;101369.00;;;;2088529;28;20212;-53
2021/10/14 02:48:12;;;;;;;1.10;1.00;;;;;18.60;101370.00;;;;2088542;28;20763;-56
2021/10/14 02:49:12;;;;;;;0.90;0.80;;;;;18.60;101365.00;;;;2087062;28;20223;-56
2021/10/14 02:50:12;;;;;;;1.43;1.30;;;;;18.60;101364.00;;;;2087339;28;20300;-57
2021/10/14 02:51:13;;;;;;;1.93;1.50;;;;;18.60;101364.00;;;;2087088;28;20307;-56
2021/10/14 02:52:13;;;;;;;1.30;1.20;;;;;18.60;101368.00;;;;2087276;28;20221;-54
2021/10/14 02:53:13;;;;;;;1.53;1.10;;;;;18.60;101363.00;;;;2087279;28;20608;-53
2021/10/14 02:54:14;;;;;;;1.27;1.17;;;;;18.60;101367.00;;;;2087440;28;20290;-55
2021/10/14 02:55:14;;;;;;;1.50;1.10;;;;;18.60;101379.00;;;;2095395;28;20242;-56
2021/10/14 02:56:14;;;;;;;1.50;1.20;;;;;18.60;101366.00;;;;2095717;28;20303;-55
2021/10/14 02:57:15;;;;;;;1.20;1.10;;;;;18.60;101371.00;;;;2095534;28;20220;-55
2021/10/14 02:58:15;;;;;;;0.90;0.90;;;;;18.60;101367.00;;;;2095478;28;20265;-56
2021/10/14 02:59:15;;;;;;;2.00;1.37;;;;;18.60;101360.00;;;;2095201;28;20315;-56
2021/10/14 03:00:16;;;;;;;1.20;1.10;;;;;18.60;101363.00;;;;2095451;28;20209;-53
2021/10/14 03:01:16;;;;;;;1.50;1.00;;;;;18.60;101360.00;;;;2088632;28;20213;-56
2021/10/14 03:02:16;;;;;;;1.47;1.27;;;;;18.60;101362.00;;;;2087319;28;20766;-56
2021/10/14 03:03:17;;;;;;;2.20;1.40;;;;;18.60;101363.00;;;;2087236;28;20552;-56
2021/10/14 03:04:17;;;;;;;1.20;1.10;;;;;18.60;101359.00;;;;2087294;28;20296;-56
2021/10/14 03:05:17;;;;;;;2.07;1.23;;;;;18.60;101351.00;;;;2087270;28;20326;-55
2021/10/14 03:06:18;;;;;;;1.10;1.00;;;;;18.60;101362.00;;;;2087229;28;20209;-56
2021/10/14 03:07:18;;;;;;;1.30;1.20;;;;;18.60;101358.00;;;;2087183;28;20217;-53
2021/10/14 03:08:18;;;;;;;1.43;1.33;;;;;18.60;101344.00;;;;2087182;28;20217;-55
2021/10/14 03:09:19;;;;;;;2.00;1.30;;;;;18.60;101358.00;;;;2086779;28;20628;-57
2021/10/14 03:10:19;;;;;;;1.33;1.23;;;;;18.60;101351.00;;;;2087177;28;20231;-56
2021/10/14 03:11:19;;;;;;;1.63;1.20;;;;;18.60;101351.00;;;;2087259;28;20350;-56
2021/10/14 03:12:20;;;;;;;2.00;1.30;;;;;18.60;101344.00;;;;2087250;28;20288;-57
2021/10/14 03:13:20;;;;;;;1.20;1.10;;;;;18.60;101351.00;;;;2087287;28;20213;-56
2021/10/14 03:14:21;;;;;;;1.90;1.40;;;;;18.60;101343.00;;;;2087046;28;20213;-57
2021/10/14 03:15:21;;;;;;;1.20;1.07;;;;;18.60;101355.00;;;;2087303;28;20208;-54
2021/10/14 03:16:22;;;;;;;1.10;1.00;;;;;18.60;101347.00;;;;2088860;28;20354;-56
2021/10/14 03:17:22;;;;;;;1.30;1.20;;;;;18.60;101347.00;;;;2088480;28;20228;-56
2021/10/14 03:18:22;;;;;;;1.23;1.13;;;;;18.60;101346.00;;;;2090771;28;20208;-54
2021/10/14 03:19:23;;;;;;;1.30;1.20;;;;;18.60;101349.00;;;;2095029;28;20212;-55
2021/10/14 03:20:23;;;;;;;1.40;1.20;;;;;18.60;101366.00;;;;2093916;28;20216;-56
2021/10/14 03:21:23;;;;;;;1.47;1.33;;;;;18.60;101355.00;;;;2095368;28;20227;-53
2021/10/14 03:22:24;;;;;;;2.03;1.40;;;;;18.60;101355.00;;;;2095397;28;20335;-54
2021/10/14 03:23:24;;;;;;;1.10;1.00;;;;;18.60;101358.00;;;;2095479;28;20222;-55
2021/10/14 03:24:24;;;;;;;1.50;1.17;;;;;18.60;101352.00;;;;2096796;28;20708;-53
2021/10/14 03:25:25;;;;;;;1.77;1.20;;;;;18.60;101360.00;;;;2096966;28;20216;-55
2021/10/14 03:26:25;;;;;;;1.60;1.30;;;;;18.60;101361.00;;;;2096941;28;20220;-57
2021/10/14 03:27:25;;;;;;;1.27;1.10;;;;;18.50;101360.00;;;;2094136;28;20307;-54
2021/10/14 03:28:26;;;;;;;1.80;0.90;;;;;18.60;101366.00;;;;2088766;28;20216;-54
2021/10/14 03:29:26;;;;;;;1.23;1.13;;;;;18.60;101363.00;;;;2088451;28;20208;-54
2021/10/14 03:30:26;;;;;;;1.10;0.90;;;;;18.50;101370.00;;;;2088303;28;20224;-56
2021/10/14 03:31:27;;;;;;;1.10;1.00;;;;;18.60;101363.00;;;;2088673;28;20255;-55
2021/10/14 03:32:27;;;;;;;1.47;1.20;;;;;18.60;101359.00;;;;2088722;28;20217;-54
2021/10/14 03:33:27;;;;;;;1.60;1.10;;;;;18.60;101366.00;;;;2088840;28;20231;-54
2021/10/14 03:34:28;;;;;;;1.30;1.20;;;;;18.60;101358.00;;;;2088562;28;20220;-56
2021/10/14 03:35:28;;;;;;;1.30;1.00;;;;;18.60;101367.00;;;;2088555;28;20216;-56
2021/10/14 03:36:29;;;;;;;1.63;1.10;;;;;18.60;101365.00;;;;2088797;28;20558;-55
2021/10/14 03:37:29;;;;;;;1.40;1.00;;;;;18.60;101364.00;;;;2088488;28;20292;-53
2021/10/14 03:38:29;;;;;;;1.20;1.00;;;;;18.50;101355.00;;;;2087853;28;20209;-59
2021/10/14 03:39:30;;;;;;;1.07;0.97;;;;;18.60;101367.00;;;;2088160;28;20212;-55
2021/10/14 03:40:30;;;;;;;1.30;1.20;;;;;18.50;101365.00;;;;2093009;28;20778;-56
2021/10/14 03:41:30;;;;;;;1.40;1.30;;;;;18.60;101362.00;;;;2096736;28;20219;-56
2021/10/14 03:42:31;;;;;;;1.30;1.13;;;;;18.60;101365.00;;;;2096734;28;20709;-58
2021/10/14 03:43:31;;;;;;;2.23;1.60;;;;;18.60;101365.00;;;;2096834;28;20669;-55
2021/10/14 03:44:33;;;;;;;0.83;0.83;;;;;18.60;101365.00;;;;2096837;28;20208;-56
2021/10/14 03:45:34;;;;;;;1.58;1.23;;;;;18.60;101361.00;;;;2093189;28;20247;-56
2021/10/14 03:46:35;;;;;;;1.38;1.13;;;;;18.60;101360.00;;;;2090016;28;20220;-56
2021/10/14 03:47:35;;;;;;;2.00;1.40;;;;;18.60;101363.00;;;;2089300;28;20216;-56
2021/10/14 03:48:36;;;;;;;1.43;1.27;;;;;18.60;101362.00;;;;2088382;28;20213;-55
2021/10/14 03:49:36;;;;;;;1.40;1.30;;;;;18.60;101364.00;;;;2086219;28;20261;-56
2021/10/14 03:50:36;;;;;;;1.37;1.27;;;;;18.60;101365.00;;;;2088569;28;20204;-56
2021/10/14 03:51:37;;;;;;;1.77;1.30;;;;;18.60;101360.00;;;;2088330;28;20831;-56
2021/10/14 03:52:38;;;;;;;1.10;1.00;;;;;18.60;101362.00;;;;2088568;28;20205;-56
2021/10/14 03:53:38;;;;;;;2.10;1.50;;;;;18.60;101358.00;;;;2088621;28;20443;-56
2021/10/14 03:54:38;;;;;;;1.10;1.00;;;;;18.60;101350.00;;;;2088569;28;20232;-56
2021/10/14 03:55:39;;;;;;;1.93;1.37;;;;;18.50;101360.00;;;;2088559;28;20411;-56
2021/10/14 03:56:39;;;;;;;1.10;0.90;;;;;18.60;101358.00;;;;2092620;28;20204;-56
2021/10/14 03:57:41;;;;;;;1.17;1.07;;;;;18.60;101363.00;;;;2095580;28;20234;-54
2021/10/14 03:58:42;;;;;;;1.20;1.10;;;;;18.60;101355.00;;;;2096640;28;20212;-53
2021/10/14 03:59:42;;;;;;;1.43;1.30;;;;;18.60;101355.00;;;;2096546;28;20764;-56
2021/10/14 04:00:42;;;;;;;1.30;1.10;;;;;18.60;101363.00;;;;2095985;28;21076;-55
2021/10/14 04:01:43;;;;;;;1.43;1.27;;;;;18.60;101357.00;;;;2095999;28;20619;-56
2021/10/14 04:02:43;;;;;;;1.33;1.00;;;;;18.60;101358.00;;;;2096666;28;20276;-56
2021/10/14 04:03:43;;;;;;;1.47;1.20;;;;;18.40;101359.00;;;;2096716;28;20219;-56
2021/10/14 04:04:44;;;;;;;1.30;1.20;;;;;18.60;101358.00;;;;2096574;28;20212;-56
2021/10/14 04:05:44;;;;;;;1.67;1.50;;;;;18.60;101337.00;;;;2096569;28;20215;-55
2021/10/14 04:06:44;;;;;;;2.00;1.13;;;;;18.60;101349.00;;;;2096672;28;20204;-55
2021/10/14 04:07:45;;;;;;;1.67;1.43;;;;;18.60;101355.00;;;;2094297;28;20223;-56
2021/10/14 04:08:45;;;;;;;1.93;1.40;;;;;18.50;101356.00;;;;2095089;28;20295;-56
2021/10/14 04:09:45;;;;;;;1.80;1.30;;;;;18.60;101348.00;;;;2095200;28;20212;-56
2021/10/14 04:10:46;;;;;;;1.90;1.30;;;;;18.60;101357.00;;;;2096774;28;20219;-56
2021/10/14 04:11:46;;;;;;;1.27;1.17;;;;;18.60;101351.00;;;;2096764;28;20239;-55
2021/10/14 04:12:46;;;;;;;1.10;1.00;;;;;18.60;101349.00;;;;2096585;28;20212;-56
2021/10/14 04:13:47;;;;;;;1.47;1.37;;;;;18.60;101360.00;;;;2096564;28;20208;-56
2021/10/14 04:14:47;;;;;;;1.40;1.30;;;;;18.60;101348.00;;;;2096698;28;20208;-56
2021/10/14 04:15:48;;;;;;;1.63;1.50;;;;;18.60;101351.00;;;;2095344;28;20218;-56
2021/10/14 04:16:48;;;;;;;1.27;1.17;;;;;18.60;101350.00;;;;2090896;28;20715;-55
2021/10/14 04:17:49;;;;;;;1.30;1.20;;;;;18.60;101347.00;;;;2093030;28;20442;-56
2021/10/14 04:18:49;;;;;;;1.27;1.17;;;;;18.60;101342.00;;;;2090411;28;20208;-56
2021/10/14 04:19:49;;;;;;;1.53;1.43;;;;;18.60;101348.00;;;;2096633;28;20215;-56
2021/10/14 04:20:50;;;;;;;1.70;1.60;;;;;18.60;101352.00;;;;2096451;28;20270;-56
2021/10/14 04:21:51;;;;;;;1.53;1.30;;;;;18.60;101344.00;;;;2096376;28;20212;-54
2021/10/14 04:22:52;;;;;;;2.53;1.43;;;;;18.60;101345.00;;;;2088335;28;20221;-55
2021/10/14 04:23:52;;;;;;;1.53;1.10;;;;;18.60;101345.00;;;;2088098;28;20221;-56
2021/10/14 04:24:53;;;;;;;1.63;1.20;;;;;18.60;101345.00;;;;2087371;28;20531;-54
2021/10/14 04:25:53;;;;;;;1.73;1.50;;;;;18.60;101345.00;;;;2094208;28;20208;-56
2021/10/14 04:26:53;;;;;;;1.53;1.40;;;;;18.60;101350.00;;;;2096792;28;20266;-56
2021/10/14 04:27:54;;;;;;;2.03;1.40;;;;;18.60;101356.00;;;;2096374;28;20212;-56
2021/10/14 04:28:54;;;;;;;1.37;1.27;;;;;18.60;101349.00;;;;2095623;28;20227;-56
2021/10/14 04:29:55;;;;;;;1.73;1.60;;;;;18.60;101355.00;;;;2095808;28;20638;-54
2021/10/14 04:30:57;;;;;;;1.33;1.00;;;;;18.60;101350.00;;;;2095825;28;20216;-55
2021/10/14 04:31:57;;;;;;;1.58;1.40;;;;;18.60;101352.00;;;;2093836;28;20516;-56
2021/10/14 04:32:58;;;;;;;1.50;1.30;;;;;18.60;101357.00;;;;2086929;28;20266;-56
2021/10/14 04:33:58;;;;;;;1.77;1.20;;;;;18.60;101358.00;;;;2085522;28;20253;-56
2021/10/14 04:34:59;;;;;;;1.30;1.20;;;;;18.60;101343.00;;;;2087437;28;20208;-55
2021/10/14 04:36:04;;;;;;;1.40;1.30;;;;;18.60;101346.00;;;;2087503;28;20213;-55
2021/10/14 04:37:06;;;;;;;1.80;1.30;;;;;18.60;101359.00;;;;2086203;28;20225;-55
2021/10/14 04:38:06;;;;;;;1.60;1.30;;;;;18.60;101349.00;;;;2091642;28;20254;-56
2021/10/14 04:39:06;;;;;;;1.60;1.50;;;;;18.60;101345.00;;;;2095483;28;20263;-56
2021/10/14 04:40:08;;;;;;;1.60;1.30;;;;;18.60;101347.00;;;;2095926;28;20295;-56
2021/10/14 04:41:08;;;;;;;1.67;1.58;;;;;18.60;101350.00;;;;2095357;28;20239;-59
2021/10/14 04:42:10;;;;;;;1.70;1.40;;;;;18.60;101347.00;;;;2096552;28;20204;-58
2021/10/14 04:43:11;;;;;;;1.60;1.50;;;;;18.60;101348.00;;;;2094955;28;20307;-56
2021/10/14 04:44:11;;;;;;;1.40;1.30;;;;;18.60;101345.00;;;;2087587;28;20197;-55
2021/10/14 04:45:12;;;;;;;1.87;1.47;;;;;18.50;101344.00;;;;2087377;28;20490;-56
2021/10/14 04:46:13;;;;;;;1.50;1.40;;;;;18.50;101351.00;;;;2087381;28;20211;-57
2021/10/14 04:47:18;;;;;;;1.73;1.23;;;;;18.60;101348.00;;;;2088883;28;20213;-56
2021/10/14 04:48:18;;;;;;;1.67;1.58;;;;;18.60;101348.00;;;;2087466;28;20212;-56
2021/10/14 04:49:19;;;;;;;1.23;1.13;;;;;18.60;101350.00;;;;2086352;28;20575;-56
2021/10/14 04:50:19;;;;;;;1.50;1.40;;;;;18.60;101358.00;;;;2087525;28;20224;-56
2021/10/14 04:51:19;;;;;;;2.00;1.50;;;;;18.60;101356.00;;;;2086752;28;20197;-53
2021/10/14 04:52:20;;;;;;;1.50;1.30;;;;;18.60;101351.00;;;;2086610;28;20248;-56
2021/10/14 04:53:20;;;;;;;1.60;1.50;;;;;18.60;101351.00;;;;2087612;28;20258;-56
2021/10/14 04:54:21;;;;;;;1.70;1.30;;;;;18.60;101355.00;;;;2086497;28;20220;-54
2021/10/14 04:55:21;;;;;;;1.63;1.50;;;;;18.50;101341.00;;;;2082422;28;20225;-55
2021/10/14 04:56:22;;;;;;;2.03;1.33;;;;;18.50;101337.00;;;;2093475;28;20204;-55
2021/10/14 04:57:22;;;;;;;1.60;1.40;;;;;18.60;101349.00;;;;2095588;28;20224;-55
2021/10/14 04:58:22;;;;;;;1.70;1.40;;;;;18.60;101343.00;;;;2095286;28;20303;-56
2021/10/14 04:59:23;;;;;;;2.00;1.53;;;;;18.60;101339.00;;;;2095753;28;20319;-56